الصفحة الرئيسية
METAR-TAF:

METAR-TAF

مطار :

مطار جورج بوش الدولي

هيوستن, تكساس, الولايات المتحدة

دائرة عرض: 29-59-33N, خط طول: 095-21-50W, ارتفاع: 29 متر

مراقبة الطقس الحالي

تاريخ ووقت الإصدار 1ساعة و 6 دقيقة قبل الساعة 19:53UTC
ريح 11 عقدة من الشمال الشرقي
درجة الحرارة 15°درجة مئوية
الرطوبة 41%
ضغط 1030 hPa
الرؤية: 16.1 كم
سماء صافية

METAR: KIAH 111953Z 04011KT 10SM CLR 15/02 A3043 RMK AO2 SLP304 T01500017

زمن: 14:59 (20:59 UTC)

توقعات

تاريخ ووقت الإصدار 3ساعات و 33 دقيقة قبل الساعة 17:26UTC
التوقعات صالحة من11 الساعة 18 UTC إلى 12 الساعة 24 UTC
ريح 10 عقدة من الشمال/الشمال الشرقي
الرؤية: 10 كم
سماء صافية
من 12 الساعة 0200 UTC
ريح 4 عقدة من الشرق/الشمال الشرقي
الرؤية: 10 كم
سماء صافية
من 12 الساعة 1100 UTC
ريح 3 عقدة من الشرق/الشمال الشرقي
الرؤية: 10 كم
غيوم متفرقة على ارتفاع 1500 قدم
غيوم مفككة على ارتفاع 4000 قدم
من 12 الساعة 1700 UTC
ريح 6 عقدة من الشرق
الرؤية: 10 كم
غيوم متفرقة على ارتفاع 3500 قدم
غيوم مفككة على ارتفاع 25000 قدم

TAF: KIAH 111726Z 1118/1224 03010KT P6SM SKC FM120200 06004KT P6SM SKC FM121100 07003KT P6SM SCT015 BKN040 FM121700 09006KT P6SM SCT035 BKN250

أرصاد الطقس والتوقعات من أكثر من 4000 مطار (تقارير الطقس للمطار METAR والتنبؤ بالطقس بالمطارTAF).

المحطات المتاحة هي النقط الصفراء والحمراء على الخريطة.

حرك المؤشر فوق النقطة لمعرفة اسم المحطة.

ثم انقر لمعرفة أرصاد وتوقعات الطقس.

لتغيير الخارطة: اضغط على الأزرار الخضراء مع رمز الصليب الأسود للتكبير. على الزر الأخضر مع شرطة للتصغير، أو على الأسهم الخضراء للخرائط المجاورة.


METAR-TAF: